Time;durP1;ratioP1;P1;durP2;ratioP2;P2;SDS_P1;SDS_P2;PMS_P1;PMS_P2;Temp;Humidity;BMP_temperature;BMP_pressure;BME280_temperature;BME280_humidity;BME280_pressure;Samples;Min_cycle;Max_cycle;Signal;HPM_P1;HPM_P2
2021/05/24 00:01:25;;;;;;;3.67;1.70;;;16.70;99.90;;;;;;5046258;28;20204;-88
2021/05/24 00:03:57;;;;;;;3.63;1.30;;;16.80;99.90;;;;;;5057918;28;20227;-87
2021/05/24 00:06:29;;;;;;;3.24;1.72;;;16.90;99.90;;;;;;4706057;28;10001036;-95
2021/05/24 00:09:00;;;;;;;3.03;1.23;;;16.60;99.90;;;;;;5056456;28;20204;-94
2021/05/24 00:11:33;;;;;;;2.73;1.40;;;16.70;99.90;;;;;;5056122;28;20208;-92
2021/05/24 00:14:07;;;;;;;3.57;1.37;;;16.40;99.90;;;;;;5050586;28;20258;-93
2021/05/24 00:24:56;;;;;;;2.50;1.20;;;16.80;99.90;;;;;;5061839;28;20288;-95
2021/05/24 00:27:31;;;;;;;4.60;1.23;;;16.70;99.90;;;;;;5245862;23;20240;-96
2021/05/24 00:30:04;;;;;;;3.57;0.90;;;16.60;99.90;;;;;;5041658;28;20193;-93
2021/05/24 00:32:40;;;;;;;3.80;1.23;;;16.30;99.90;;;;;;5030805;28;20240;-93
2021/05/24 00:35:14;;;;;;;2.20;1.00;;;16.00;99.90;;;;;;5461929;23;20275;-93
2021/05/24 00:37:58;;;;;;;4.03;1.30;;;15.70;99.90;;;;;;5041778;28;20264;-91
2021/05/24 00:40:31;;;;;;;3.43;1.50;;;15.90;99.90;;;;;;5040315;28;20193;-89
2021/05/24 00:43:03;;;;;;;5.00;1.50;;;15.60;99.90;;;;;;5042063;28;20217;-92
2021/05/24 00:45:35;;;;;;;2.93;1.50;;;15.70;99.90;;;;;;5052794;28;20239;-89
2021/05/24 00:48:06;;;;;;;3.90;1.60;;;15.10;99.90;;;;;;5053750;28;20215;-89
2021/05/24 00:50:38;;;;;;;4.73;1.50;;;14.70;99.90;;;;;;5051750;28;20309;-91
2021/05/24 00:53:09;;;;;;;3.07;1.50;;;14.60;99.90;;;;;;5056982;28;20247;-93
2021/05/24 00:55:42;;;;;;;3.73;1.87;;;14.70;99.90;;;;;;5051035;28;20223;-94
2021/05/24 00:58:13;;;;;;;3.07;1.87;;;14.60;99.90;;;;;;5057028;28;20220;-92
2021/05/24 01:00:49;;;;;;;3.33;1.83;;;14.20;99.90;;;;;;5045286;28;20282;-94
2021/05/24 01:03:19;;;;;;;4.77;1.73;;;14.30;99.90;;;;;;5038742;28;20201;-94
2021/05/24 01:05:50;;;;;;;4.47;2.07;;;14.20;99.90;;;;;;5037897;28;20296;-93
2021/05/24 01:08:23;;;;;;;17.97;1.70;;;14.30;99.90;;;;;;5030116;28;20216;-92
2021/05/24 01:10:58;;;;;;;5.20;1.60;;;14.30;99.90;;;;;;5042058;28;20206;-91
2021/05/24 01:13:29;;;;;;;4.17;1.40;;;14.20;99.90;;;;;;5035016;28;20282;-90
2021/05/24 01:16:01;;;;;;;3.07;1.30;;;14.40;99.90;;;;;;5036048;28;20278;-94
2021/05/24 01:18:32;;;;;;;5.17;1.50;;;14.30;99.90;;;;;;5036309;28;20273;-89
2021/05/24 01:21:09;;;;;;;4.63;1.10;;;14.40;99.90;;;;;;5012355;28;20225;-89
2021/05/24 01:23:42;;;;;;;3.80;1.37;;;14.60;99.90;;;;;;5019998;28;20209;-92
2021/05/24 01:26:13;;;;;;;2.57;1.40;;;14.70;99.90;;;;;;5027580;28;20236;-90
2021/05/24 01:28:46;;;;;;;3.40;1.30;;;14.30;99.90;;;;;;5032152;28;20197;-90
2021/05/24 01:31:17;;;;;;;3.87;1.43;;;14.00;99.90;;;;;;5033821;28;20627;-88
2021/05/24 01:33:47;;;;;;;5.17;1.30;;;14.10;99.90;;;;;;5021669;28;20271;-90
2021/05/24 01:36:20;;;;;;;5.10;1.50;;;14.10;99.90;;;;;;5020068;28;20669;-91
2021/05/24 01:38:51;;;;;;;5.10;1.43;;;14.20;99.90;;;;;;5009163;28;20285;-90
2021/05/24 01:41:23;;;;;;;4.17;1.60;;;14.10;99.90;;;;;;4999490;28;20306;-89
2021/05/24 01:43:54;;;;;;;3.03;1.70;;;14.10;99.90;;;;;;5006955;28;20211;-88
2021/05/24 01:46:25;;;;;;;4.70;1.50;;;14.30;99.90;;;;;;5018201;28;20214;-89
2021/05/24 01:48:56;;;;;;;6.73;1.73;;;13.90;99.90;;;;;;5003246;28;20206;-89
2021/05/24 01:51:29;;;;;;;4.77;1.70;;;13.90;99.90;;;;;;5001912;28;20202;-91
2021/05/24 01:53:59;;;;;;;5.43;1.83;;;13.80;99.90;;;;;;5011541;28;20817;-90
2021/05/24 01:56:31;;;;;;;5.20;1.93;;;14.00;99.90;;;;;;5010987;28;20656;-91
2021/05/24 01:59:03;;;;;;;7.80;2.20;;;14.10;99.90;;;;;;5014424;28;20201;-91
2021/05/24 02:01:35;;;;;;;5.90;2.30;;;13.60;99.90;;;;;;5013896;28;20373;-89
2021/05/24 02:04:06;;;;;;;4.50;2.20;;;13.40;99.90;;;;;;5014018;28;20273;-91
2021/05/24 02:06:40;;;;;;;6.27;2.30;;;13.50;99.90;;;;;;5010183;28;20200;-90
2021/05/24 02:09:11;;;;;;;4.10;1.97;;;13.70;99.90;;;;;;5014030;28;20960;-91
2021/05/24 02:11:43;;;;;;;6.20;2.20;;;13.80;99.90;;;;;;5013097;28;20225;-89
2021/05/24 02:14:16;;;;;;;7.40;2.60;;;13.40;99.90;;;;;;5025851;28;20271;-90
2021/05/24 02:16:50;;;;;;;4.83;1.83;;;13.50;99.90;;;;;;5011547;28;20207;-96
2021/05/24 02:19:22;;;;;;;6.87;2.27;;;13.50;99.90;;;;;;5019930;28;20197;-88
2021/05/24 02:21:54;;;;;;;5.47;1.97;;;13.40;99.90;;;;;;5022022;28;20637;-87
2021/05/24 02:24:25;;;;;;;7.50;2.43;;;13.40;99.90;;;;;;5015100;28;20263;-89
2021/05/24 02:26:56;;;;;;;5.70;2.00;;;13.20;99.90;;;;;;4665571;28;9999963;-89
2021/05/24 02:29:26;;;;;;;8.97;2.30;;;13.20;99.90;;;;;;5014414;28;20209;-88
2021/05/24 02:31:56;;;;;;;4.57;2.00;;;13.00;99.90;;;;;;5020333;28;20213;-88
2021/05/24 02:34:28;;;;;;;5.20;1.90;;;13.10;99.90;;;;;;5013615;28;20253;-88
2021/05/24 02:37:01;;;;;;;6.20;1.87;;;13.00;99.90;;;;;;5001607;28;20560;-90
2021/05/24 02:39:32;;;;;;;6.53;2.30;;;12.90;99.90;;;;;;5008762;28;20268;-88
2021/05/24 02:42:03;;;;;;;6.37;2.13;;;12.90;99.90;;;;;;5000098;28;20206;-89
2021/05/24 02:44:34;;;;;;;6.50;2.07;;;12.70;99.90;;;;;;5013469;28;20240;-90
2021/05/24 02:47:04;;;;;;;7.67;2.10;;;12.70;99.90;;;;;;5012598;28;20300;-91
2021/05/24 02:49:34;;;;;;;7.27;2.20;;;12.70;99.90;;;;;;5016139;28;20209;-90
2021/05/24 02:52:08;;;;;;;4.70;2.13;;;12.60;99.90;;;;;;5015583;28;20233;-89
2021/05/24 02:54:39;;;;;;;6.83;2.43;;;12.60;99.90;;;;;;5016999;28;20241;-90
2021/05/24 02:57:13;;;;;;;10.20;2.83;;;12.60;99.90;;;;;;5016383;28;20691;-90
2021/05/24 02:59:44;;;;;;;5.20;2.20;;;12.60;99.90;;;;;;5015218;28;20233;-89
2021/05/24 03:02:16;;;;;;;6.73;2.20;;;12.50;99.90;;;;;;5016516;28;20210;-89
2021/05/24 03:04:47;;;;;;;9.33;2.97;;;12.50;99.90;;;;;;5024066;28;20213;-88
2021/05/24 03:07:19;;;;;;;5.90;2.60;;;12.50;99.90;;;;;;5024918;28;20243;-90
2021/05/24 03:09:51;;;;;;;7.97;2.17;;;12.40;99.90;;;;;;5023839;28;20221;-88
2021/05/24 03:12:22;;;;;;;6.90;1.93;;;12.50;99.90;;;;;;4984655;28;20226;-88
2021/05/24 03:14:53;;;;;;;7.93;2.27;;;12.40;99.90;;;;;;5016266;28;20696;-89
2021/05/24 03:17:25;;;;;;;6.77;2.43;;;12.40;99.90;;;;;;5017305;28;20210;-89
2021/05/24 03:19:57;;;;;;;8.47;2.00;;;12.40;99.90;;;;;;5017587;28;20232;-88
2021/05/24 03:22:31;;;;;;;7.90;2.17;;;12.40;99.90;;;;;;4999713;28;20198;-88
2021/05/24 03:25:02;;;;;;;5.27;1.80;;;12.40;99.90;;;;;;5016573;28;20210;-88
2021/05/24 03:27:35;;;;;;;7.40;2.23;;;12.40;99.90;;;;;;5019274;28;20205;-88
2021/05/24 03:30:08;;;;;;;7.20;2.37;;;12.30;99.90;;;;;;5023339;28;20202;-89
2021/05/24 03:32:39;;;;;;;9.13;2.00;;;12.30;99.90;;;;;;5029035;28;20209;-89
2021/05/24 03:35:10;;;;;;;7.90;2.13;;;12.30;99.90;;;;;;5028835;28;20275;-90
2021/05/24 03:37:44;;;;;;;6.03;2.20;;;12.20;99.90;;;;;;5030813;28;20225;-89
2021/05/24 03:40:16;;;;;;;7.83;2.00;;;12.30;99.90;;;;;;5021425;28;20637;-89
2021/05/24 03:42:46;;;;;;;5.20;1.90;;;12.30;99.90;;;;;;5043321;28;20225;-90
2021/05/24 03:45:23;;;;;;;7.57;2.50;;;12.40;99.90;;;;;;5037591;28;20214;-90
2021/05/24 03:47:55;;;;;;;9.30;1.90;;;12.30;99.90;;;;;;5032468;28;20585;-88
2021/05/24 03:50:27;;;;;;;8.20;2.03;;;12.30;99.90;;;;;;5020619;28;20213;-89
2021/05/24 03:52:59;;;;;;;6.30;2.23;;;12.30;99.90;;;;;;5020509;28;20251;-89
2021/05/24 03:55:29;;;;;;;8.27;2.13;;;12.30;99.90;;;;;;5005737;28;20214;-88
2021/05/24 03:58:00;;;;;;;5.83;1.70;;;12.30;99.90;;;;;;5009436;28;20209;-90
2021/05/24 04:00:30;;;;;;;9.57;2.40;;;12.30;99.90;;;;;;5018614;28;20218;-89
2021/05/24 04:03:02;;;;;;;11.60;2.30;;;12.30;99.90;;;;;;4998511;28;20256;-89
2021/05/24 04:05:44;;;;;;;6.57;2.23;;;12.30;99.90;;;;;;5007242;28;20210;-89
2021/05/24 04:08:16;;;;;;;8.97;2.10;;;12.20;99.90;;;;;;4987225;28;20716;-89
2021/05/24 04:10:51;;;;;;;12.77;2.50;;;12.30;99.90;;;;;;5007202;28;20249;-88
2021/05/24 04:13:22;;;;;;;6.83;2.70;;;12.30;99.90;;;;;;5014030;28;20263;-89
2021/05/24 04:15:55;;;;;;;6.93;2.17;;;12.30;99.90;;;;;;5018328;28;20281;-87
2021/05/24 04:18:27;;;;;;;8.63;2.60;;;12.20;99.90;;;;;;5014932;28;20226;-88
2021/05/24 04:20:58;;;;;;;7.40;2.13;;;12.20;99.90;;;;;;5007222;28;20217;-88
2021/05/24 04:23:33;;;;;;;8.67;2.30;;;12.10;99.90;;;;;;5018125;28;20631;-89
2021/05/24 04:26:04;;;;;;;7.43;2.10;;;12.10;99.90;;;;;;5017565;28;20209;-88
2021/05/24 04:28:35;;;;;;;8.37;2.40;;;12.20;99.90;;;;;;5017778;28;20206;-88
2021/05/24 04:31:08;;;;;;;7.07;2.10;;;12.20;99.90;;;;;;5008668;28;20291;-88
2021/05/24 04:33:38;;;;;;;4.57;1.80;;;12.10;99.90;;;;;;5014718;28;20276;-88
2021/05/24 04:36:09;;;;;;;5.87;2.20;;;12.10;99.90;;;;;;5024282;28;20315;-88
2021/05/24 04:38:41;;;;;;;8.37;2.17;;;12.20;99.90;;;;;;5021450;28;20717;-88
2021/05/24 04:41:12;;;;;;;12.13;2.63;;;12.10;99.90;;;;;;5015959;28;20214;-89
2021/05/24 04:43:42;;;;;;;7.33;2.03;;;12.10;99.90;;;;;;5017371;28;20205;-89
2021/05/24 04:46:26;;;;;;;8.47;2.20;;;12.20;99.90;;;;;;5017483;28;20213;-88
2021/05/24 04:48:59;;;;;;;5.33;2.00;;;12.10;99.90;;;;;;5017242;28;20289;-88
2021/05/24 04:51:29;;;;;;;9.97;2.50;;;12.10;99.90;;;;;;5016415;28;20202;-88
2021/05/24 04:54:04;;;;;;;3.33;1.90;;;12.10;99.90;;;;;;5040296;28;20271;-88
2021/05/24 04:56:35;;;;;;;9.70;2.10;;;12.10;99.90;;;;;;5033621;28;20201;-88
2021/05/24 04:59:13;;;;;;;6.20;2.10;;;12.10;99.90;;;;;;5000084;28;20715;-88
2021/05/24 05:02:11;;;;;;;7.50;2.33;;;12.10;99.90;;;;;;5005077;28;20253;-91
2021/05/24 05:04:43;;;;;;;6.10;2.27;;;12.00;99.90;;;;;;4998199;28;20207;-88
2021/05/24 05:07:17;;;;;;;8.10;2.13;;;12.10;99.90;;;;;;5015858;28;20264;-89
2021/05/24 05:09:49;;;;;;;6.47;1.77;;;12.10;99.90;;;;;;5010109;28;20214;-88
2021/05/24 05:12:20;;;;;;;6.07;1.60;;;12.10;99.90;;;;;;5015340;28;20272;-88
2021/05/24 05:14:51;;;;;;;6.23;2.07;;;12.10;99.90;;;;;;4995739;28;20268;-89
2021/05/24 05:17:22;;;;;;;7.73;2.47;;;12.10;99.90;;;;;;5019115;28;20213;-88
2021/05/24 05:19:52;;;;;;;4.63;1.90;;;12.00;99.90;;;;;;5017051;28;20939;-88
2021/05/24 05:22:23;;;;;;;6.63;3.00;;;12.00;99.90;;;;;;5018822;28;20292;-89
2021/05/24 05:25:00;;;;;;;8.80;2.43;;;11.90;99.90;;;;;;5010754;28;20222;-87
2021/05/24 05:27:50;;;;;;;8.23;2.40;;;11.90;99.90;;;;;;5016240;28;20209;-91
2021/05/24 05:30:30;;;;;;;7.77;2.37;;;11.90;99.90;;;;;;5019066;28;20265;-89
2021/05/24 05:33:31;;;;;;;7.60;2.10;;;11.90;99.90;;;;;;5019860;28;20220;-90
2021/05/24 05:36:27;;;;;;;5.53;2.23;;;11.90;99.90;;;;;;5018043;28;20267;-89
2021/05/24 05:39:05;;;;;;;5.70;2.37;;;11.90;99.90;;;;;;5016257;28;20202;-89
2021/05/24 05:41:38;;;;;;;8.10;2.27;;;12.00;99.90;;;;;;5017320;28;20210;-90
2021/05/24 05:44:12;;;;;;;7.17;1.90;;;12.00;99.90;;;;;;5016657;28;20206;-90
2021/05/24 05:46:46;;;;;;;7.20;2.33;;;11.90;99.90;;;;;;5029346;28;20206;-90
2021/05/24 05:49:17;;;;;;;8.93;3.17;;;12.00;99.90;;;;;;5025769;28;20219;-90
2021/05/24 05:51:51;;;;;;;7.63;2.10;;;11.90;99.90;;;;;;5022866;28;20834;-90
2021/05/24 05:54:22;;;;;;;7.90;2.83;;;11.90;99.90;;;;;;5018020;28;20718;-91
2021/05/24 05:56:55;;;;;;;6.87;2.33;;;11.90;99.90;;;;;;5023670;28;20205;-89
2021/05/24 05:59:26;;;;;;;7.30;2.23;;;11.90;99.90;;;;;;5033355;28;20232;-90
2021/05/24 06:01:57;;;;;;;6.83;1.93;;;11.90;99.90;;;;;;5024371;28;20202;-89
2021/05/24 06:04:28;;;;;;;6.37;1.90;;;11.90;99.90;;;;;;5039782;28;20201;-89
2021/05/24 06:07:01;;;;;;;6.27;2.30;;;11.90;99.90;;;;;;5013161;28;20224;-89
2021/05/24 06:09:33;;;;;;;5.97;1.90;;;11.90;99.90;;;;;;5019647;28;20257;-90
2021/05/24 06:12:11;;;;;;;9.13;2.20;;;11.90;99.90;;;;;;5011882;28;20211;-90
2021/05/24 06:14:42;;;;;;;2.87;1.77;;;12.00;99.90;;;;;;5036002;28;20315;-88
2021/05/24 06:17:13;;;;;;;5.83;1.90;;;12.00;99.90;;;;;;5036275;28;20232;-90
2021/05/24 06:19:43;;;;;;;4.00;1.83;;;12.00;99.90;;;;;;5030962;28;20205;-90
2021/05/24 06:22:17;;;;;;;5.70;2.03;;;12.00;99.90;;;;;;5030390;28;20217;-90
2021/05/24 06:24:47;;;;;;;8.70;1.87;;;11.90;99.90;;;;;;5018306;28;20245;-89
2021/05/24 06:27:20;;;;;;;6.50;2.03;;;11.90;99.90;;;;;;5036041;28;20208;-88
2021/05/24 06:29:51;;;;;;;7.87;1.93;;;11.80;99.90;;;;;;5033480;28;20213;-89
2021/05/24 06:32:23;;;;;;;7.13;2.20;;;11.70;99.90;;;;;;5031269;28;20202;-89
2021/05/24 06:34:53;;;;;;;13.20;2.20;;;11.80;99.90;;;;;;5025946;28;20233;-89
2021/05/24 06:37:27;;;;;;;7.67;2.37;;;11.80;99.90;;;;;;5031271;28;20209;-89
2021/05/24 06:40:09;;;;;;;6.47;1.97;;;11.70;99.90;;;;;;5045327;28;20282;-89
2021/05/24 06:42:44;;;;;;;7.73;2.63;;;11.70;99.90;;;;;;5046310;28;20212;-89
2021/05/24 06:45:19;;;;;;;7.80;2.30;;;11.70;99.90;;;;;;5012545;28;20236;-90
2021/05/24 06:47:49;;;;;;;10.13;2.30;;;11.70;99.90;;;;;;5016474;28;20264;-88
2021/05/24 06:50:20;;;;;;;5.97;2.13;;;11.60;99.90;;;;;;4997018;28;20657;-88
2021/05/24 06:52:52;;;;;;;6.40;2.20;;;11.60;99.90;;;;;;4997343;28;20564;-87
2021/05/24 06:55:24;;;;;;;6.73;2.20;;;11.60;99.90;;;;;;4996997;28;20311;-88
2021/05/24 06:57:58;;;;;;;7.00;2.03;;;11.70;99.90;;;;;;5014204;28;20251;-88
2021/05/24 07:00:29;;;;;;;5.80;2.00;;;11.70;99.90;;;;;;5014936;28;20205;-88
2021/05/24 07:03:00;;;;;;;7.00;2.13;;;11.60;99.90;;;;;;5013910;28;20644;-88
2021/05/24 07:05:30;;;;;;;5.00;2.10;;;11.60;99.90;;;;;;5022491;28;20217;-88
2021/05/24 07:08:01;;;;;;;6.40;2.70;;;11.60;99.90;;;;;;5000359;28;20255;-88
2021/05/24 07:10:32;;;;;;;5.13;2.17;;;11.60;99.90;;;;;;5012296;28;20263;-88
2021/05/24 07:13:09;;;;;;;10.43;2.23;;;11.60;99.90;;;;;;5012693;28;20240;-91
2021/05/24 07:15:44;;;;;;;8.47;2.40;;;11.60;99.90;;;;;;5013223;28;20245;-90
2021/05/24 07:18:19;;;;;;;7.97;1.90;;;11.60;99.90;;;;;;5010303;28;20233;-90
2021/05/24 07:20:50;;;;;;;8.13;2.90;;;11.70;99.90;;;;;;5005681;28;20213;-90
2021/05/24 07:23:20;;;;;;;7.57;1.90;;;11.60;99.90;;;;;;5016915;28;20301;-90
2021/05/24 07:26:06;;;;;;;6.10;2.10;;;11.60;99.90;;;;;;5015886;28;20244;-88
2021/05/24 07:28:37;;;;;;;5.97;1.90;;;11.60;99.90;;;;;;5011986;28;20248;-88
2021/05/24 07:31:10;;;;;;;8.33;2.30;;;11.60;99.90;;;;;;5008540;28;20728;-88
2021/05/24 07:33:41;;;;;;;10.57;2.23;;;11.50;99.90;;;;;;5012713;28;20774;-89
2021/05/24 07:36:16;;;;;;;9.87;2.27;;;11.60;99.90;;;;;;5013608;28;20261;-90
2021/05/24 07:38:48;;;;;;;6.70;1.97;;;11.50;99.90;;;;;;5013521;28;20209;-89
2021/05/24 07:41:48;;;;;;;6.57;1.93;;;11.50;99.90;;;;;;4984882;28;20207;-88
2021/05/24 07:44:37;;;;;;;7.10;2.60;;;11.50;99.90;;;;;;5007925;28;20210;-88
2021/05/24 07:47:15;;;;;;;6.63;2.30;;;11.50;99.90;;;;;;5011879;28;20304;-89
2021/05/24 07:50:27;;;;;;;5.63;2.20;;;11.50;99.90;;;;;;5017127;28;20591;-91
2021/05/24 07:53:24;;;;;;;5.70;2.40;;;11.50;99.90;;;;;;4964124;28;20335;-90
2021/05/24 07:56:22;;;;;;;7.23;2.10;;;11.50;99.90;;;;;;5009944;28;20665;-90
2021/05/24 07:59:12;;;;;;;8.50;2.40;;;11.60;99.90;;;;;;5014145;28;20213;-90
2021/05/24 08:02:23;;;;;;;9.70;2.13;;;11.50;99.90;;;;;;5001555;28;20218;-89
2021/05/24 08:05:02;;;;;;;6.33;2.20;;;11.60;99.90;;;;;;5017448;28;20648;-90
2021/05/24 08:08:01;;;;;;;6.77;2.13;;;11.50;99.90;;;;;;5034016;28;20205;-88
2021/05/24 08:10:51;;;;;;;7.83;2.67;;;11.50;99.90;;;;;;5018617;28;20300;-91
2021/05/24 08:13:36;;;;;;;8.70;2.43;;;11.40;99.90;;;;;;5022235;28;20220;-89
2021/05/24 08:16:15;;;;;;;10.10;2.30;;;11.50;99.90;;;;;;5021844;28;20344;-89
2021/05/24 08:18:46;;;;;;;6.20;2.23;;;11.50;99.90;;;;;;5020091;28;20202;-89
2021/05/24 08:21:17;;;;;;;7.07;2.30;;;11.50;99.90;;;;;;5017743;28;20264;-90
2021/05/24 08:23:48;;;;;;;8.83;2.37;;;11.50;99.90;;;;;;5021587;28;20216;-89
2021/05/24 08:26:24;;;;;;;6.77;2.50;;;11.50;99.90;;;;;;5057066;28;20616;-89
2021/05/24 08:28:56;;;;;;;5.70;2.00;;;11.40;99.90;;;;;;5047502;28;20202;-88
2021/05/24 08:31:26;;;;;;;7.40;2.37;;;11.30;99.90;;;;;;5020036;28;20210;-88
2021/05/24 08:33:59;;;;;;;9.07;2.57;;;11.40;99.90;;;;;;5023329;28;20213;-89
2021/05/24 08:36:30;;;;;;;9.40;2.60;;;11.40;99.90;;;;;;5015721;28;20284;-89
2021/05/24 08:39:01;;;;;;;9.10;2.70;;;11.40;99.90;;;;;;4999602;28;20244;-89
2021/05/24 08:41:33;;;;;;;7.77;2.13;;;11.30;99.90;;;;;;5012891;28;20255;-89
2021/05/24 08:44:05;;;;;;;8.47;2.43;;;11.30;99.90;;;;;;5016691;28;20212;-89
2021/05/24 08:46:36;;;;;;;8.77;2.40;;;11.30;99.90;;;;;;4999097;28;20248;-89
2021/05/24 08:49:09;;;;;;;7.30;1.90;;;11.40;99.90;;;;;;5017118;28;20276;-89
2021/05/24 08:51:39;;;;;;;6.83;2.33;;;11.40;99.90;;;;;;5015425;28;20268;-89
2021/05/24 08:54:10;;;;;;;10.03;2.50;;;11.30;99.90;;;;;;5016782;28;20290;-90
2021/05/24 08:56:41;;;;;;;6.73;2.30;;;11.20;99.90;;;;;;5016701;28;20233;-90
2021/05/24 08:59:11;;;;;;;9.17;2.60;;;11.20;99.90;;;;;;5016360;28;20363;-90
2021/05/24 09:01:43;;;;;;;6.57;2.60;;;11.20;99.90;;;;;;5015719;28;20217;-90
2021/05/24 09:04:15;;;;;;;9.37;3.07;;;11.00;99.90;;;;;;5010311;28;20292;-90
2021/05/24 09:06:52;;;;;;;9.87;2.70;;;10.90;99.90;;;;;;5016631;28;20263;-90
2021/05/24 09:09:24;;;;;;;6.63;2.43;;;10.90;99.90;;;;;;5025914;28;20221;-89
2021/05/24 09:11:57;;;;;;;7.83;2.83;;;10.80;99.90;;;;;;5002388;28;20217;-88
2021/05/24 09:14:28;;;;;;;7.87;3.00;;;10.70;99.90;;;;;;5003014;28;20751;-89
2021/05/24 09:17:02;;;;;;;8.03;3.00;;;10.70;99.90;;;;;;5015900;28;20209;-89
2021/05/24 09:19:38;;;;;;;8.00;3.37;;;10.70;99.90;;;;;;5016288;28;20218;-89
2021/05/24 09:22:10;;;;;;;12.67;3.07;;;10.70;99.90;;;;;;5015718;28;20273;-88
2021/05/24 09:24:45;;;;;;;6.23;2.50;;;10.60;99.90;;;;;;5016083;28;20209;-88
2021/05/24 09:27:28;;;;;;;4.47;2.67;;;10.60;99.90;;;;;;5016807;28;20265;-88
2021/05/24 09:30:00;;;;;;;6.50;2.63;;;10.50;99.90;;;;;;5015876;28;20213;-89
2021/05/24 09:32:32;;;;;;;7.70;2.63;;;10.60;99.90;;;;;;5017474;28;20244;-88
2021/05/24 09:35:07;;;;;;;10.30;2.77;;;10.60;99.90;;;;;;5017757;28;20237;-89
2021/05/24 09:37:40;;;;;;;12.23;2.60;;;10.70;99.90;;;;;;5035761;28;20650;-88
2021/05/24 09:40:22;;;;;;;7.67;3.33;;;10.70;99.90;;;;;;5034409;28;20213;-87
2021/05/24 09:42:55;;;;;;;10.00;2.93;;;10.60;99.90;;;;;;5035442;28;20216;-87
2021/05/24 09:45:26;;;;;;;7.47;2.37;;;10.70;99.90;;;;;;5006226;28;20221;-87
2021/05/24 09:48:00;;;;;;;10.10;2.70;;;10.70;99.90;;;;;;5000125;28;20203;-89
2021/05/24 09:50:37;;;;;;;6.03;2.37;;;10.70;99.90;;;;;;4999265;28;20213;-89
2021/05/24 09:53:08;;;;;;;6.83;2.27;;;10.70;99.90;;;;;;5006278;28;20213;-89
2021/05/24 09:55:39;;;;;;;7.60;2.33;;;10.70;99.90;;;;;;5038208;28;20240;-89
2021/05/24 09:58:12;;;;;;;5.87;2.43;;;10.60;99.90;;;;;;5006594;28;20218;-89
2021/05/24 10:00:45;;;;;;;6.47;2.23;;;10.50;99.90;;;;;;4973132;28;20216;-89
2021/05/24 10:03:16;;;;;;;8.80;2.50;;;10.60;99.90;;;;;;5035312;28;20212;-89
2021/05/24 10:05:51;;;;;;;8.40;2.03;;;10.60;99.90;;;;;;5043290;28;20263;-89
2021/05/24 10:08:22;;;;;;;4.67;2.10;;;10.50;99.90;;;;;;5043921;28;20650;-88
2021/05/24 10:10:55;;;;;;;7.73;2.03;;;10.50;99.90;;;;;;5040607;28;20234;-89
2021/05/24 10:13:27;;;;;;;8.53;2.30;;;10.60;99.90;;;;;;5034639;28;20271;-89
2021/05/24 10:16:02;;;;;;;6.87;2.30;;;10.60;99.90;;;;;;5034546;28;20267;-89
2021/05/24 10:18:34;;;;;;;6.80;2.27;;;10.60;99.90;;;;;;5034256;28;20243;-89
2021/05/24 10:21:08;;;;;;;6.57;2.50;;;10.50;99.90;;;;;;5012422;28;20271;-89
2021/05/24 10:23:39;;;;;;;3.97;2.20;;;10.60;99.90;;;;;;5014989;28;20202;-88
2021/05/24 10:26:12;;;;;;;4.73;2.10;;;10.60;99.90;;;;;;5014440;28;21081;-88
2021/05/24 10:28:47;;;;;;;10.53;2.43;;;10.50;99.90;;;;;;5015424;28;20210;-88
2021/05/24 10:31:23;;;;;;;6.90;2.57;;;10.50;99.90;;;;;;5014453;28;20260;-88
2021/05/24 10:33:54;;;;;;;7.10;2.30;;;10.50;99.90;;;;;;5015137;28;20240;-88
2021/05/24 10:36:32;;;;;;;4.10;1.80;;;10.50;99.90;;;;;;5014286;28;20265;-89
2021/05/24 10:39:06;;;;;;;6.37;2.00;;;10.60;99.90;;;;;;5031872;28;20205;-88
2021/05/24 10:41:51;;;;;;;5.63;2.07;;;10.60;99.90;;;;;;5030858;28;20510;-89
2021/05/24 10:44:23;;;;;;;4.60;2.33;;;10.60;99.90;;;;;;5007521;28;20259;-88
2021/05/24 10:46:55;;;;;;;5.17;2.00;;;10.70;99.90;;;;;;5014979;28;20239;-89
2021/05/24 10:49:27;;;;;;;6.07;2.10;;;10.60;99.90;;;;;;5015766;28;20228;-88
2021/05/24 10:52:10;;;;;;;3.70;2.20;;;10.60;99.90;;;;;;5014296;28;20198;-88
2021/05/24 10:54:42;;;;;;;8.30;2.30;;;10.60;99.90;;;;;;5015453;28;20687;-88
2021/05/24 10:57:20;;;;;;;4.70;2.20;;;10.60;99.90;;;;;;5034244;28;20279;-88
2021/05/24 10:59:52;;;;;;;5.13;2.57;;;10.60;99.90;;;;;;5033593;28;20310;-88
2021/05/24 11:02:52;;;;;;;7.57;2.60;;;10.50;99.90;;;;;;5033867;28;20224;-88
2021/05/24 11:05:34;;;;;;;6.70;3.13;;;10.50;99.90;;;;;;5017279;28;20300;-88
2021/05/24 11:08:08;;;;;;;7.03;2.60;;;10.40;99.90;;;;;;5014547;28;20209;-89
2021/05/24 11:10:48;;;;;;;8.10;3.03;;;10.40;99.90;;;;;;5012961;28;20260;-88
2021/05/24 11:13:27;;;;;;;9.80;2.90;;;10.30;99.90;;;;;;5014265;28;20244;-89
2021/05/24 11:16:12;;;;;;;5.40;2.70;;;10.30;99.90;;;;;;5013893;28;20241;-89
2021/05/24 11:18:48;;;;;;;10.80;3.20;;;10.20;99.90;;;;;;5018219;28;20214;-89
2021/05/24 11:21:27;;;;;;;6.37;3.07;;;10.30;99.90;;;;;;5005170;28;20274;-89
2021/05/24 11:24:33;;;;;;;5.80;2.87;;;10.30;99.90;;;;;;5016104;28;20217;-89
2021/05/24 11:27:09;;;;;;;5.03;2.30;;;10.40;99.90;;;;;;5018365;28;20227;-89
2021/05/24 11:29:40;;;;;;;6.53;2.43;;;10.30;99.90;;;;;;5018823;28;20204;-88
2021/05/24 11:32:21;;;;;;;6.40;3.10;;;10.40;99.90;;;;;;5017116;28;20241;-88
2021/05/24 11:34:52;;;;;;;8.97;2.70;;;10.40;99.90;;;;;;5017955;28;20239;-88
2021/05/24 11:37:44;;;;;;;5.70;3.00;;;10.30;99.90;;;;;;5016488;28;20295;-89
2021/05/24 11:40:18;;;;;;;4.40;2.63;;;10.30;99.90;;;;;;5017542;28;20210;-88
2021/05/24 11:42:50;;;;;;;3.97;2.63;;;10.30;99.90;;;;;;5018494;28;20217;-89
2021/05/24 11:45:23;;;;;;;7.07;2.80;;;10.30;99.90;;;;;;5010908;28;20256;-88
2021/05/24 11:47:58;;;;;;;7.87;2.67;;;10.20;99.90;;;;;;5015190;28;20217;-88
2021/05/24 11:50:29;;;;;;;6.43;2.77;;;10.20;99.90;;;;;;5019842;28;20204;-88
2021/05/24 11:53:01;;;;;;;6.47;2.67;;;10.20;99.90;;;;;;5033991;28;20205;-89
2021/05/24 11:55:34;;;;;;;5.53;2.40;;;10.20;99.90;;;;;;5038600;28;20216;-88
2021/05/24 11:58:12;;;;;;;4.50;2.60;;;10.10;99.90;;;;;;5022248;28;20217;-88
2021/05/24 12:00:45;;;;;;;6.97;3.10;;;10.00;99.90;;;;;;5035665;28;20208;-88
2021/05/24 12:03:16;;;;;;;4.37;2.37;;;10.00;99.90;;;;;;5035002;28;20214;-89
2021/05/24 12:05:47;;;;;;;6.17;2.73;;;10.10;99.90;;;;;;5017239;28;20210;-88
2021/05/24 12:08:21;;;;;;;6.37;3.10;;;10.00;99.90;;;;;;5024824;28;20594;-88
2021/05/24 12:11:02;;;;;;;5.53;2.37;;;10.00;99.90;;;;;;5017231;28;20210;-89
2021/05/24 12:13:54;;;;;;;4.83;2.77;;;9.90;99.90;;;;;;5017337;28;20245;-88
2021/05/24 12:16:25;;;;;;;5.27;2.37;;;10.00;99.90;;;;;;5018168;28;20236;-88
2021/05/24 12:18:57;;;;;;;6.87;3.00;;;9.80;99.90;;;;;;5036917;28;20663;-89
2021/05/24 12:21:36;;;;;;;7.13;3.13;;;9.80;99.90;;;;;;5036270;28;20208;-88
2021/05/24 12:24:09;;;;;;;5.17;2.63;;;9.80;99.90;;;;;;5021465;28;20631;-88
2021/05/24 12:26:49;;;;;;;4.03;2.63;;;9.80;99.90;;;;;;5003487;28;20242;-86
2021/05/24 12:29:26;;;;;;;3.80;2.80;;;9.80;99.90;;;;;;5018684;28;20208;-88
2021/05/24 12:32:02;;;;;;;5.87;3.03;;;9.70;99.90;;;;;;5016174;28;20292;-88
2021/05/24 12:34:46;;;;;;;5.10;3.30;;;9.70;99.90;;;;;;5016433;28;20220;-88
2021/05/24 12:37:20;;;;;;;7.00;3.23;;;9.70;99.90;;;;;;5016488;28;20707;-88
2021/05/24 12:39:55;;;;;;;6.13;3.30;;;9.70;99.90;;;;;;4992106;28;20202;-89
2021/05/24 12:42:27;;;;;;;4.30;3.03;;;9.70;99.90;;;;;;5031626;28;20302;-89
2021/05/24 12:45:02;;;;;;;6.63;3.57;;;9.70;99.90;;;;;;5036727;28;20280;-88
2021/05/24 12:47:33;;;;;;;6.27;3.67;;;9.70;99.90;;;;;;5036817;28;20212;-89
2021/05/24 12:50:15;;;;;;;5.97;3.83;;;9.70;99.90;;;;;;5032209;28;20220;-89
2021/05/24 12:52:46;;;;;;;8.00;3.23;;;9.80;99.90;;;;;;5036073;28;20202;-89
2021/05/24 12:55:19;;;;;;;6.60;3.50;;;9.80;99.90;;;;;;5037070;28;20224;-89
2021/05/24 12:57:54;;;;;;;7.33;3.03;;;9.80;99.90;;;;;;5026531;28;20244;-90
2021/05/24 13:00:26;;;;;;;5.43;3.07;;;9.80;99.90;;;;;;5017278;28;20217;-89
2021/05/24 13:02:56;;;;;;;4.63;2.83;;;9.80;99.90;;;;;;5016382;28;20205;-89
2021/05/24 13:05:28;;;;;;;4.10;2.57;;;9.80;99.90;;;;;;5016283;28;20615;-89
2021/05/24 13:08:00;;;;;;;6.63;2.70;;;9.80;99.90;;;;;;5022631;28;20303;-89
2021/05/24 13:10:34;;;;;;;8.17;2.73;;;9.80;99.90;;;;;;5035670;28;20257;-90
2021/05/24 13:13:17;;;;;;;4.80;3.03;;;9.90;99.90;;;;;;5025605;28;20202;-88
2021/05/24 13:15:52;;;;;;;7.20;2.90;;;9.90;99.90;;;;;;5010580;28;20216;-91
2021/05/24 13:21:37;;;;;;;5.27;2.90;;;9.90;99.90;;;;;;5013920;28;20209;-88
2021/05/24 13:24:23;;;;;;;4.70;2.40;;;9.90;99.90;;;;;;5016170;28;20225;-88
2021/05/24 13:29:47;;;;;;;7.07;3.40;;;9.90;99.90;;;;;;5011892;28;20206;-91
2021/05/24 13:32:26;;;;;;;5.80;3.27;;;9.90;99.90;;;;;;5015942;28;20259;-90
2021/05/24 13:35:01;;;;;;;5.27;3.73;;;9.90;99.90;;;;;;5015943;28;20217;-88
2021/05/24 13:37:43;;;;;;;7.10;3.87;;;9.90;99.90;;;;;;5014903;28;20237;-89
2021/05/24 13:40:17;;;;;;;6.10;3.70;;;9.90;99.90;;;;;;5013576;28;20205;-89